Latest Weather Observations for Dalby

IDQ60801

Issued at 11:32 pm EST Friday 26 August 2016 (issued every 30 minutes, with the page automatically refreshed every 10 minutes)

About weather observations | Map of weather stations | Latest weather observations for QLD | Other Formats
Station Details ID: 041522 Name: DALBY AIRPORT Lat: -27.16 Lon: 151.26 Height: 343.9 m
Data from the previous 72 hours. | See also: Recent months at Dalby
Date/Time
EST
Temp
°C
App
Temp
°C
Dew
Point
°C
Rel
Hum
%
Delta-T
°C
Wind Press
QNH
hPa
Press
MSL
hPa
Rain since
9am
mm
Dir  Spd
km/h
Gust
km/h
Spd
kts
Gust
kts
26/11:00pm 7.6 2.9 1.2 64 2.6 SW 15 22 8 12 1020.2 1020.0 0.0
26/10:30pm 8.0 3.0 1.2 62 2.8 SW 17 24 9 13 1020.2 1020.0 0.0
26/10:00pm 8.4 3.0 1.1 60 3.0 SSW 19 24 10 13 1020.1 1019.9 0.0
26/09:30pm 8.8 3.3 0.8 57 3.3 SSW 19 24 10 13 1019.8 1019.6 0.0
26/09:00pm 9.2 3.5 0.6 55 3.5 SW 20 26 11 14 1019.7 1019.5 0.0
26/08:30pm 9.0 3.9 1.0 57 3.3 SW 17 24 9 13 1019.6 1019.4 0.0
26/08:00pm 9.3 4.6 1.0 56 3.5 SW 15 20 8 11 1019.4 1019.2 0.0
26/07:30pm 10.0 4.9 0.6 52 3.9 SW 17 20 9 11 1019.3 1019.1 0.0
26/07:00pm 10.3 5.2 0.6 51 4.0 SW 17 20 9 11 1019.2 1019.0 0.0
26/06:30pm 11.1 6.3 0.5 48 4.4 SW 15 19 8 10 1019.0 1018.8 0.0
26/06:00pm 11.9 6.3 -0.3 43 5.1 SW 19 22 10 12 1018.3 1018.0 0.0
26/05:30pm 13.0 5.5 -1.3 37 5.9 SW 28 37 15 20 1017.9 1017.6 0.0
26/05:00pm 14.1 6.9 -1.9 33 6.5 WSW 26 33 14 18 1017.3 1017.1 0.0
26/04:30pm 15.0 8.1 -2.4 30 7.1 SW 24 32 13 17 1016.8 1016.6 0.0
26/04:00pm 15.3 8.3 -3.1 28 7.4 SW 24 35 13 19 1016.3 1016.1 0.0
26/03:30pm 15.6 9.2 -1.9 30 7.3 SW 22 39 12 21 1016.1 1015.9 0.0
26/03:00pm 15.6 9.5 -2.3 29 7.4 WSW 20 26 11 14 1015.8 1015.5 0.0
26/02:30pm 16.1 9.9 -2.9 27 7.8 SW 20 32 11 17 1015.8 1015.5 0.0
26/02:00pm 15.5 9.1 -1.5 31 7.1 WSW 22 32 12 17 1016.0 1015.8 0.0
26/01:30pm 15.6 9.7 -1.0 32 7.0 WSW 20 28 11 15 1016.2 1016.0 0.0
26/01:00pm 15.9 9.8 0.5 35 6.7 WSW 22 33 12 18 1016.6 1016.4 0.0
26/12:30pm 15.5 8.7 0.5 36 6.6 WSW 26 37 14 20 1016.8 1016.6 0.0
26/12:00pm 15.1 8.4 -1.0 33 6.8 SW 24 33 13 18 1017.3 1017.1 0.0
26/11:30am 14.8 7.9 -0.1 36 6.4 WSW 26 33 14 18 1017.9 1017.6 0.0
26/11:00am 14.0 8.6 1.0 41 5.7 SW 19 32 10 17 1018.6 1018.4 0.0
26/10:30am 13.5 7.2 1.8 45 5.2 WSW 24 32 13 17 1018.7 1018.5 0.0
26/10:00am 12.2 6.4 2.4 51 4.3 SW 22 32 12 17 1019.1 1018.9 0.0
26/09:30am 11.9 7.9 2.6 53 4.1 SW 13 20 7 11 1019.1 1018.9 0.0
26/09:00am 10.8 7.3 5.6 70 2.4 SSW 13 19 7 10 1019.3 1019.1 0.0
26/08:30am 8.9 5.7 5.3 78 1.7 SW 11 15 6 8 1019.6 1019.4 0.0
26/08:00am 7.5 4.2 4.5 81 1.3 SW 11 13 6 7 1019.7 1019.5 0.0
26/07:30am 5.9 3.4 4.5 91 0.6 W 7 9 4 5 1019.4 1019.2 0.0
26/07:00am 3.8 1.0 2.9 94 0.4 WNW 7 7 4 4 1018.9 1018.7 0.0
26/06:30am 1.3 -1.8 0.1 92 0.4 NW 6 7 3 4 1018.8 1018.6 0.0
26/06:00am 1.5 -1.5 0.5 93 0.4 WNW 6 7 3 4 1018.2 1017.9 0.0
26/05:30am 1.3 -0.7 0.0 91 0.5 CALM 0 0 0 0 1017.9 1017.6 0.0
26/05:00am 1.2 -0.8 -0.3 90 0.6 CALM 0 0 0 0 1017.6 1017.4 0.0
26/04:30am 1.6 -0.3 0.3 91 0.5 CALM 0 0 0 0 1017.5 1017.3 0.0
26/04:00am 1.9 0.0 0.3 89 0.6 CALM 0 0 0 0 1017.1 1016.9 0.0
26/03:30am 2.8 1.0 1.3 90 0.6 CALM 0 0 0 0 1017.0 1016.8 0.0
26/03:00am 2.7 0.9 0.9 88 0.7 CALM 0 4 0 2 1017.2 1017.0 0.0
26/02:30am 5.3 2.2 3.5 88 0.8 SW 9 11 5 6 1017.0 1016.8 0.0
26/02:00am 5.2 2.1 3.4 88 0.8 SW 9 11 5 6 1017.2 1017.0 0.0
26/01:30am 5.6 2.8 3.3 85 1.0 SSW 7 9 4 5 1017.4 1017.2 0.0
26/01:00am 6.1 3.0 3.8 85 1.0 SSW 9 11 5 6 1017.5 1017.3 0.0
26/12:30am 6.1 3.4 3.9 86 1.0 SW 7 9 4 5 1017.9 1017.6 0.0
26/12:00am 6.0 2.9 3.7 85 1.0 WSW 9 11 5 6 1018.0 1017.7 0.0
 
Date/Time
EST
Temp
°C
App
Temp
°C
Dew
Point
°C
Rel
Hum
%
Delta-T
°C
Wind Press
QNH
hPa
Press
MSL
hPa
Rain since
9am
mm
Dir  Spd
km/h
Gust
km/h
Spd
kts
Gust
kts
25/11:30pm 6.6 3.9 3.8 82 1.2 SW 7 9 4 5 1018.0 1017.7 0.0
25/11:00pm 7.6 5.1 4.6 81 1.3 SW 7 13 4 7 1018.0 1017.7 0.0
25/10:30pm 8.0 5.1 4.8 80 1.4 SSW 9 11 5 6 1017.7 1017.5 0.0
25/10:00pm 7.7 5.2 4.7 81 1.3 SSW 7 9 4 5 1017.7 1017.5 0.0
25/09:30pm 8.1 5.6 4.9 80 1.4 SW 7 7 4 4 1017.7 1017.5 0.0
25/09:00pm 9.0 6.5 4.6 74 2.0 SW 7 9 4 5 1017.6 1017.4 0.0
25/08:30pm 9.9 7.4 4.5 69 2.5 SSW 7 9 4 5 1017.3 1017.1 0.0
25/08:00pm 10.0 7.1 4.8 70 2.4 SSW 9 11 5 6 1017.1 1016.9 0.0
25/07:30pm 10.4 7.6 5.0 69 2.5 SSW 9 13 5 7 1016.7 1016.5 0.0
25/07:00pm 10.8 7.6 4.9 67 2.7 SSW 11 15 6 8 1016.1 1015.9 0.0
25/06:30pm 11.9 7.9 4.9 62 3.3 SSW 15 17 8 9 1015.7 1015.4 0.0
25/06:00pm 12.6 8.1 4.3 57 3.8 SW 17 20 9 11 1015.1 1014.8 0.0
25/05:30pm 13.3 8.1 3.7 52 4.4 SW 20 26 11 14 1014.6 1014.4 0.0
25/05:00pm 14.5 8.5 3.3 47 5.2 SW 24 33 13 18 1014.0 1013.8 0.0
25/04:30pm 15.1 9.8 4.8 50 4.9 SW 22 32 12 17 1013.7 1013.5 0.0
25/04:00pm 15.1 8.4 3.9 47 5.2 WSW 28 37 15 20 1013.5 1013.3 0.0
25/03:30pm 14.8 8.6 4.2 49 5.0 SW 26 35 14 19 1013.4 1013.1 0.0
25/03:00pm 15.7 10.5 5.3 50 5.0 SW 22 32 12 17 1013.2 1012.9 0.0
25/02:30pm 15.5 9.5 5.1 50 5.0 WSW 26 39 14 21 1013.3 1013.0 0.0
25/02:00pm 15.1 7.9 4.8 50 4.9 WSW 32 41 17 22 1013.2 1012.9 0.0
25/01:30pm 14.6 7.8 5.1 53 4.5 WSW 30 37 16 20 1013.1 1012.8 0.0
25/01:00pm 14.5 8.5 7.1 61 3.7 WSW 28 39 15 21 1013.3 1013.0 0.0
25/12:30pm 13.9 7.8 6.7 62 3.5 WSW 28 35 15 19 1013.6 1013.4 0.0
25/12:00pm 13.3 7.5 8.0 70 2.7 WSW 28 39 15 21 1014.1 1013.9 0.0
25/11:30am 13.4 6.7 7.2 66 3.1 WSW 32 41 17 22 1014.2 1014.0 0.0
25/11:00am 13.0 6.9 6.4 64 3.2 WSW 28 39 15 21 1014.3 1014.1 0.0
25/10:30am 12.2 6.8 6.5 68 2.8 WSW 24 33 13 18 1014.7 1014.5 0.0
25/10:00am 11.7 6.9 5.8 67 2.8 WSW 20 30 11 16 1014.7 1014.5 0.0
25/09:30am 11.2 6.0 5.3 67 2.8 WSW 22 32 12 17 1014.9 1014.6 0.0
25/09:00am 10.6 5.0 5.6 71 2.3 SW 24 30 13 16 1014.9 1014.6 1.6
25/08:30am 10.2 5.0 5.4 72 2.2 SW 22 30 12 16 1014.7 1014.5 1.6
25/08:00am 10.0 5.8 5.8 75 2.0 SW 17 24 9 13 1014.7 1014.5 1.6
25/07:30am 10.0 4.9 6.2 77 1.8 SW 22 30 12 16 1014.1 1013.9 1.6
25/07:00am 9.7 5.2 5.9 77 1.8 SW 19 26 10 14 1014.0 1013.8 1.6
25/06:30am 9.6 4.1 5.8 77 1.8 SW 24 32 13 17 1013.7 1013.5 1.6
25/06:00am 10.3 5.3 6.6 78 1.8 SW 22 32 12 17 1013.3 1013.0 1.6
25/05:30am 10.8 6.0 7.3 79 1.7 W 22 28 12 15 1012.2 1011.9 1.6
25/05:00am 10.8 7.0 7.7 81 1.5 WSW 17 20 9 11 1012.5 1012.2 1.6
25/04:30am 10.8 6.0 7.5 80 1.6 SW 22 28 12 15 1011.9 1011.6 1.6
25/04:00am 11.4 6.5 8.4 82 1.5 WSW 24 33 13 18 1011.9 1011.6 1.6
25/03:30am 11.7 6.3 8.0 78 1.8 WSW 26 32 14 17 1010.8 1010.5 1.6
25/03:00am 12.2 8.4 9.2 82 1.5 WSW 19 26 10 14 1010.4 1010.1 1.6
25/02:30am 12.5 8.2 9.3 81 1.6 WSW 22 30 12 16 1012.1 1011.8 1.6
25/02:00am 12.8 8.6 9.6 81 1.7 WSW 22 33 12 18 1010.8 1010.5 1.6
25/01:30am 13.1 9.3 9.9 81 1.7 WSW 20 30 11 16 1010.4 1010.1 1.6
25/01:00am 13.3 9.7 10.7 84 1.4 SW 20 32 11 17 1010.0 1009.7 1.6
25/12:30am 13.7 9.5 11.2 85 1.3 WSW 24 33 13 18 1011.1 1010.9 1.6
25/12:00am 14.0 8.8 11.5 85 1.4 WSW 30 37 16 20 1011.3 1011.1 1.6
 
Date/Time
EST
Temp
°C
App
Temp
°C
Dew
Point
°C
Rel
Hum
%
Delta-T
°C
Wind Press
QNH
hPa
Press
MSL
hPa
Rain since
9am
mm
Dir  Spd
km/h
Gust
km/h
Spd
kts
Gust
kts
24/11:30pm 14.7 9.2 12.0 84 1.5 WSW 32 41 17 22 1010.7 1010.4 1.6
24/11:00pm 15.1 9.8 12.4 84 1.5 W 32 43 17 23 1010.8 1010.5 1.6
24/10:36pm 15.7 11.2 12.6 82 1.7 W 28 46 15 25 1010.2 1009.9 1.6
24/10:30pm 15.7 11.7 13.0 84 1.5 W 26 35 14 19 1010.3 1010.0 1.6
24/10:00pm 16.4 13.8 13.9 85 1.4 W 20 37 11 20 1009.4 1009.1 1.6
24/09:30pm 16.5 14.2 14.7 89 1.1 WNW 20 32 11 17 1009.3 1009.0 1.6
24/09:00pm 16.2 13.9 14.7 91 0.9 NW 20 24 11 13 1009.6 1009.3 1.6
24/08:30pm 16.3 15.0 14.7 90 0.9 NW 15 19 8 10 1009.0 1008.7 1.6
24/08:00pm 16.5 14.9 14.9 90 0.9 NNW 17 22 9 12 1008.7 1008.4 1.6
24/07:30pm 16.5 15.2 14.9 90 0.9 NW 15 17 8 9 1008.7 1008.4 1.6
24/07:00pm 17.0 15.9 15.2 89 1.1 NW 15 20 8 11 1007.8 1007.5 1.6
24/06:30pm 17.5 16.2 15.7 89 1.1 NW 17 22 9 12 1008.0 1007.7 1.6
24/06:17pm 17.8 16.0 16.0 89 1.1 WNW 20 43 11 23 1008.2 1007.9 1.6
24/06:00pm 17.4 17.6 15.7 90 1.0 NNW 9 17 5 9 1007.7 1007.4 1.6
24/05:30pm 17.3 16.7 15.6 90 1.0 NW 13 19 7 10 1008.1 1007.8 1.4
24/05:00pm 17.3 15.4 15.3 88 1.2 NNE 19 24 10 13 1007.0 1006.7 1.4
24/04:30pm 17.5 16.3 15.0 85 1.5 N 15 17 8 9 1006.7 1006.4 1.4
24/04:00pm 17.5 15.3 15.0 85 1.5 WNW 20 30 11 16 1007.4 1007.1 1.4
24/03:30pm 17.7 15.8 15.3 86 1.4 WNW 19 28 10 15 1007.8 1007.5 1.4
24/03:00pm 17.8 16.6 15.1 84 1.6 NNW 15 19 8 10 1007.0 1006.7 1.4
24/02:30pm 17.6 16.4 15.0 85 1.5 NW 15 24 8 13 1007.0 1006.7 1.4
24/02:00pm 17.6 15.6 15.4 87 1.3 WNW 20 28 11 15 1007.9 1007.6 1.4
24/01:30pm 17.6 14.3 15.0 85 1.5 WNW 26 35 14 19 1008.1 1007.8 1.4
24/01:00pm 17.6 14.3 15.0 85 1.5 WNW 26 32 14 17 1008.3 1008.0 1.4
24/12:30pm 17.5 15.4 15.1 86 1.4 WNW 20 32 11 17 1008.1 1007.8 1.4
24/12:00pm 17.5 14.8 15.7 89 1.1 WNW 24 35 13 19 1008.5 1008.3 1.2
24/11:30am 17.6 14.1 15.6 88 1.2 WNW 28 35 15 19 1008.9 1008.6 0.6
24/11:00am 17.9 14.9 15.9 88 1.2 WNW 26 35 14 19 1008.4 1008.1 0.4
24/10:30am 18.1 14.0 15.9 87 1.3 NW 32 41 17 22 1009.0 1008.7 0.2
24/10:00am 18.8 15.3 16.6 87 1.3 NW 30 35 16 19 1008.5 1008.3 0.0
24/09:30am 18.4 16.1 16.7 90 1.0 NNW 24 32 13 17 1008.8 1008.5 0.0
24/09:00am 18.3 16.4 16.8 91 0.9 NNW 22 30 12 16 1008.2 1007.9 19.4
24/08:30am 18.1 15.8 16.6 91 0.9 WNW 24 32 13 17 1008.8 1008.5 19.0
24/08:00am 18.5 14.0 16.5 88 1.2 NNW 35 50 19 27 1008.3 1008.0 18.4
24/07:30am 18.3 14.3 16.3 88 1.2 N 32 44 17 24 1007.7 1007.4 17.4
24/07:00am 18.5 16.2 16.7 89 1.1 N 24 32 13 17 1007.9 1007.6 14.6
24/06:30am 18.0 16.4 16.5 91 0.9 N 20 26 11 14 1007.8 1007.5 13.8
24/06:00am 18.0 16.5 16.3 90 1.0 N 19 24 10 13 1007.8 1007.5 10.2
24/05:30am 17.9 17.5 16.1 89 1.1 N 13 17 7 9 1007.5 1007.2 8.8
24/05:00am 17.7 17.6 15.9 89 1.1 N 11 13 6 7 1007.3 1007.0 8.4
24/04:30am 17.9 17.0 15.9 88 1.2 N 15 19 8 10 1007.4 1007.1 8.4
24/04:00am 17.6 17.1 15.9 90 1.0 N 13 15 7 8 1007.4 1007.1 8.4
24/03:30am 17.6 16.6 16.5 93 0.7 N 17 20 9 11 1007.6 1007.3 8.4
24/03:00am 15.2 14.7 13.9 92 0.7 ENE 9 11 5 6 1008.2 1007.9 8.0
24/02:30am 15.1 13.8 13.8 92 0.7 E 13 15 7 8 1008.3 1008.0 8.0
24/02:00am 14.8 13.4 13.5 92 0.7 E 13 15 7 8 1009.0 1008.7 7.4
24/01:30am 14.6 12.4 13.3 92 0.7 ESE 17 20 9 11 1009.2 1008.9 7.4
24/01:00am 14.5 13.0 13.2 92 0.7 ESE 13 17 7 9 1010.2 1009.9 7.2
24/12:30am 14.4 12.5 13.1 92 0.7 SE 15 19 8 10 1010.2 1009.9 7.2
24/12:00am 14.5 12.3 13.2 92 0.7 SE 17 22 9 12 1010.6 1010.3 7.2

Other Formats:

Comma delimited format used in spreadsheet applications
http://www.bom.gov.au/fwo/IDQ60801/IDQ60801.94542.axf

JavaScript Object Notation format (JSON) in row-major order
http://www.bom.gov.au/fwo/IDQ60801/IDQ60801.94542.json